sensor_id;sensor_type;location;lat;lon;timestamp;P1;durP1;ratioP1;P2;durP2;ratioP2
6878;SDS011;3478;51.462;7.338;2022-10-17T00:02:58;4.70;;;4.40;;
6878;SDS011;3478;51.462;7.338;2022-10-17T00:08:00;4.23;;;3.83;;
6878;SDS011;3478;51.462;7.338;2022-10-17T00:13:02;5.40;;;4.40;;
6878;SDS011;3478;51.462;7.338;2022-10-17T00:18:05;4.83;;;4.20;;
6878;SDS011;3478;51.462;7.338;2022-10-17T00:23:07;5.23;;;4.50;;
6878;SDS011;3478;51.462;7.338;2022-10-17T00:28:09;3.73;;;3.43;;
6878;SDS011;3478;51.462;7.338;2022-10-17T00:33:13;5.27;;;4.47;;
6878;SDS011;3478;51.462;7.338;2022-10-17T00:38:15;6.43;;;3.80;;
6878;SDS011;3478;51.462;7.338;2022-10-17T00:43:17;4.23;;;4.00;;
6878;SDS011;3478;51.462;7.338;2022-10-17T00:48:21;4.90;;;4.17;;
6878;SDS011;3478;51.462;7.338;2022-10-17T00:53:25;5.03;;;4.57;;
6878;SDS011;3478;51.462;7.338;2022-10-17T00:58:27;5.07;;;4.50;;
6878;SDS011;3478;51.462;7.338;2022-10-17T01:03:31;4.03;;;3.83;;
6878;SDS011;3478;51.462;7.338;2022-10-17T01:08:32;5.87;;;4.27;;
6878;SDS011;3478;51.462;7.338;2022-10-17T01:13:36;4.27;;;3.93;;
6878;SDS011;3478;51.462;7.338;2022-10-17T01:18:47;4.50;;;4.20;;
6878;SDS011;3478;51.462;7.338;2022-10-17T01:24:04;6.37;;;4.10;;
6878;SDS011;3478;51.462;7.338;2022-10-17T01:29:26;4.33;;;3.90;;
6878;SDS011;3478;51.462;7.338;2022-10-17T01:34:37;11.10;;;4.13;;
6878;SDS011;3478;51.462;7.338;2022-10-17T01:39:45;5.53;;;4.03;;
6878;SDS011;3478;51.462;7.338;2022-10-17T01:44:52;3.90;;;3.37;;
6878;SDS011;3478;51.462;7.338;2022-10-17T01:50:02;4.80;;;4.27;;
6878;SDS011;3478;51.462;7.338;2022-10-17T01:55:08;4.57;;;4.27;;
6878;SDS011;3478;51.462;7.338;2022-10-17T02:00:14;7.70;;;3.77;;
6878;SDS011;3478;51.462;7.338;2022-10-17T02:05:23;5.57;;;5.07;;
6878;SDS011;3478;51.462;7.338;2022-10-17T02:10:31;7.80;;;4.70;;
6878;SDS011;3478;51.462;7.338;2022-10-17T02:15:40;6.53;;;3.87;;
6878;SDS011;3478;51.462;7.338;2022-10-17T02:20:57;4.23;;;3.97;;
6878;SDS011;3478;51.462;7.338;2022-10-17T02:26:08;7.33;;;3.50;;
6878;SDS011;3478;51.462;7.338;2022-10-17T02:31:13;7.50;;;3.90;;
6878;SDS011;3478;51.462;7.338;2022-10-17T02:36:20;6.10;;;4.27;;
6878;SDS011;3478;51.462;7.338;2022-10-17T02:41:26;6.47;;;3.83;;
6878;SDS011;3478;51.462;7.338;2022-10-17T02:46:28;5.47;;;4.30;;
6878;SDS011;3478;51.462;7.338;2022-10-17T02:51:35;4.50;;;4.07;;
6878;SDS011;3478;51.462;7.338;2022-10-17T02:56:45;5.00;;;4.60;;
6878;SDS011;3478;51.462;7.338;2022-10-17T03:01:51;3.87;;;3.67;;
6878;SDS011;3478;51.462;7.338;2022-10-17T03:06:55;5.10;;;3.60;;
6878;SDS011;3478;51.462;7.338;2022-10-17T03:11:57;6.03;;;3.43;;
6878;SDS011;3478;51.462;7.338;2022-10-17T03:16:58;7.67;;;4.20;;
6878;SDS011;3478;51.462;7.338;2022-10-17T03:22:02;5.13;;;4.60;;
6878;SDS011;3478;51.462;7.338;2022-10-17T03:27:04;5.73;;;4.30;;
6878;SDS011;3478;51.462;7.338;2022-10-17T03:32:06;4.70;;;4.40;;
6878;SDS011;3478;51.462;7.338;2022-10-17T03:37:09;3.60;;;3.30;;
6878;SDS011;3478;51.462;7.338;2022-10-17T03:42:11;7.33;;;3.53;;
6878;SDS011;3478;51.462;7.338;2022-10-17T03:47:12;4.33;;;3.93;;
6878;SDS011;3478;51.462;7.338;2022-10-17T03:52:16;4.80;;;4.40;;
6878;SDS011;3478;51.462;7.338;2022-10-17T03:57:18;7.00;;;3.10;;
6878;SDS011;3478;51.462;7.338;2022-10-17T04:02:20;5.30;;;4.07;;
6878;SDS011;3478;51.462;7.338;2022-10-17T04:07:23;7.33;;;5.00;;
6878;SDS011;3478;51.462;7.338;2022-10-17T04:12:25;3.60;;;3.37;;
6878;SDS011;3478;51.462;7.338;2022-10-17T04:17:28;6.53;;;3.90;;
6878;SDS011;3478;51.462;7.338;2022-10-17T04:22:32;4.90;;;4.07;;
6878;SDS011;3478;51.462;7.338;2022-10-17T04:27:33;3.80;;;3.50;;
6878;SDS011;3478;51.462;7.338;2022-10-17T04:32:36;5.30;;;4.30;;
6878;SDS011;3478;51.462;7.338;2022-10-17T04:37:40;4.80;;;4.27;;
6878;SDS011;3478;51.462;7.338;2022-10-17T04:42:41;4.13;;;3.90;;
6878;SDS011;3478;51.462;7.338;2022-10-17T04:47:43;6.40;;;3.43;;
6878;SDS011;3478;51.462;7.338;2022-10-17T04:52:47;4.67;;;4.07;;
6878;SDS011;3478;51.462;7.338;2022-10-17T04:57:48;3.97;;;3.67;;
6878;SDS011;3478;51.462;7.338;2022-10-17T05:02:50;7.53;;;4.10;;
6878;SDS011;3478;51.462;7.338;2022-10-17T05:07:54;5.23;;;4.83;;
6878;SDS011;3478;51.462;7.338;2022-10-17T05:12:56;5.10;;;4.60;;
6878;SDS011;3478;51.462;7.338;2022-10-17T05:17:58;5.70;;;4.20;;
6878;SDS011;3478;51.462;7.338;2022-10-17T05:23:02;7.87;;;3.63;;
6878;SDS011;3478;51.462;7.338;2022-10-17T05:28:04;3.73;;;3.43;;
6878;SDS011;3478;51.462;7.338;2022-10-17T05:33:05;4.23;;;3.93;;
6878;SDS011;3478;51.462;7.338;2022-10-17T05:38:09;4.17;;;2.83;;
6878;SDS011;3478;51.462;7.338;2022-10-17T05:43:11;6.73;;;4.07;;
6878;SDS011;3478;51.462;7.338;2022-10-17T05:48:13;4.23;;;3.43;;
6878;SDS011;3478;51.462;7.338;2022-10-17T05:53:17;6.27;;;4.07;;
6878;SDS011;3478;51.462;7.338;2022-10-17T05:58:18;4.03;;;3.73;;
6878;SDS011;3478;51.462;7.338;2022-10-17T06:03:20;5.10;;;4.70;;
6878;SDS011;3478;51.462;7.338;2022-10-17T06:08:23;4.00;;;3.70;;
6878;SDS011;3478;51.462;7.338;2022-10-17T06:13:25;4.20;;;3.90;;
6878;SDS011;3478;51.462;7.338;2022-10-17T06:18:27;3.90;;;3.60;;
6878;SDS011;3478;51.462;7.338;2022-10-17T06:23:31;4.30;;;3.90;;
6878;SDS011;3478;51.462;7.338;2022-10-17T06:28:33;6.80;;;4.23;;
6878;SDS011;3478;51.462;7.338;2022-10-17T06:33:35;3.97;;;3.63;;
6878;SDS011;3478;51.462;7.338;2022-10-17T06:38:38;2.97;;;2.73;;
6878;SDS011;3478;51.462;7.338;2022-10-17T06:43:41;3.93;;;3.60;;
6878;SDS011;3478;51.462;7.338;2022-10-17T06:48:45;4.00;;;3.63;;
6878;SDS011;3478;51.462;7.338;2022-10-17T06:53:48;4.47;;;4.23;;
6878;SDS011;3478;51.462;7.338;2022-10-17T06:58:50;5.60;;;3.43;;
6878;SDS011;3478;51.462;7.338;2022-10-17T07:03:52;4.37;;;3.40;;
6878;SDS011;3478;51.462;7.338;2022-10-17T07:08:56;4.13;;;3.47;;
6878;SDS011;3478;51.462;7.338;2022-10-17T07:13:58;3.63;;;3.20;;
6878;SDS011;3478;51.462;7.338;2022-10-17T07:19:00;8.43;;;3.87;;
6878;SDS011;3478;51.462;7.338;2022-10-17T07:24:04;12.83;;;4.60;;
6878;SDS011;3478;51.462;7.338;2022-10-17T07:29:06;3.50;;;3.20;;
6878;SDS011;3478;51.462;7.338;2022-10-17T07:34:09;4.13;;;3.80;;
6878;SDS011;3478;51.462;7.338;2022-10-17T07:39:12;4.53;;;3.30;;
6878;SDS011;3478;51.462;7.338;2022-10-17T07:44:14;4.57;;;3.73;;
6878;SDS011;3478;51.462;7.338;2022-10-17T07:49:16;4.03;;;3.83;;
6878;SDS011;3478;51.462;7.338;2022-10-17T07:54:19;4.17;;;3.80;;
6878;SDS011;3478;51.462;7.338;2022-10-17T07:59:21;3.97;;;3.60;;
6878;SDS011;3478;51.462;7.338;2022-10-17T08:04:23;3.67;;;3.47;;
6878;SDS011;3478;51.462;7.338;2022-10-17T08:09:27;3.70;;;2.80;;
6878;SDS011;3478;51.462;7.338;2022-10-17T08:14:28;5.70;;;3.17;;
6878;SDS011;3478;51.462;7.338;2022-10-17T08:19:31;5.43;;;3.37;;
6878;SDS011;3478;51.462;7.338;2022-10-17T08:24:34;3.83;;;3.50;;
6878;SDS011;3478;51.462;7.338;2022-10-17T08:29:36;3.97;;;3.43;;
6878;SDS011;3478;51.462;7.338;2022-10-17T08:34:38;6.73;;;2.73;;
6878;SDS011;3478;51.462;7.338;2022-10-17T08:39:41;3.90;;;2.97;;
6878;SDS011;3478;51.462;7.338;2022-10-17T08:44:45;5.60;;;3.03;;
6878;SDS011;3478;51.462;7.338;2022-10-17T08:49:57;4.87;;;3.70;;
6878;SDS011;3478;51.462;7.338;2022-10-17T08:55:03;5.30;;;2.77;;
6878;SDS011;3478;51.462;7.338;2022-10-17T09:00:16;6.30;;;2.33;;
6878;SDS011;3478;51.462;7.338;2022-10-17T09:05:25;3.13;;;2.83;;
6878;SDS011;3478;51.462;7.338;2022-10-17T09:10:40;2.50;;;2.30;;
6878;SDS011;3478;51.462;7.338;2022-10-17T09:15:59;3.00;;;2.47;;
6878;SDS011;3478;51.462;7.338;2022-10-17T09:21:16;3.80;;;2.90;;
6878;SDS011;3478;51.462;7.338;2022-10-17T09:26:22;4.80;;;2.70;;
6878;SDS011;3478;51.462;7.338;2022-10-17T09:31:28;6.27;;;3.10;;
6878;SDS011;3478;51.462;7.338;2022-10-17T09:36:34;3.63;;;2.67;;
6878;SDS011;3478;51.462;7.338;2022-10-17T09:41:40;3.83;;;2.53;;
6878;SDS011;3478;51.462;7.338;2022-10-17T09:46:48;6.53;;;2.80;;
6878;SDS011;3478;51.462;7.338;2022-10-17T09:52:10;6.63;;;3.07;;
6878;SDS011;3478;51.462;7.338;2022-10-17T09:57:16;5.30;;;3.23;;
6878;SDS011;3478;51.462;7.338;2022-10-17T10:02:20;5.80;;;2.83;;
6878;SDS011;3478;51.462;7.338;2022-10-17T10:07:23;7.93;;;2.97;;
6878;SDS011;3478;51.462;7.338;2022-10-17T10:12:29;8.70;;;2.50;;
6878;SDS011;3478;51.462;7.338;2022-10-17T10:17:33;4.90;;;3.10;;
6878;SDS011;3478;51.462;7.338;2022-10-17T10:22:37;5.03;;;2.97;;
6878;SDS011;3478;51.462;7.338;2022-10-17T10:27:41;3.17;;;2.97;;
6878;SDS011;3478;51.462;7.338;2022-10-17T10:32:45;3.73;;;2.77;;
6878;SDS011;3478;51.462;7.338;2022-10-17T10:37:49;2.80;;;2.60;;
6878;SDS011;3478;51.462;7.338;2022-10-17T10:42:55;3.50;;;2.53;;
6878;SDS011;3478;51.462;7.338;2022-10-17T10:48:00;8.83;;;3.03;;
6878;SDS011;3478;51.462;7.338;2022-10-17T10:53:08;8.43;;;2.10;;
6878;SDS011;3478;51.462;7.338;2022-10-17T10:58:28;4.27;;;2.83;;
6878;SDS011;3478;51.462;7.338;2022-10-17T11:03:40;7.17;;;1.97;;
6878;SDS011;3478;51.462;7.338;2022-10-17T11:08:47;2.40;;;2.20;;
6878;SDS011;3478;51.462;7.338;2022-10-17T11:13:57;7.10;;;3.23;;
6878;SDS011;3478;51.462;7.338;2022-10-17T11:19:05;3.53;;;2.53;;
6878;SDS011;3478;51.462;7.338;2022-10-17T11:24:15;3.23;;;2.83;;
6878;SDS011;3478;51.462;7.338;2022-10-17T11:29:26;4.60;;;2.70;;
6878;SDS011;3478;51.462;7.338;2022-10-17T11:34:30;3.97;;;2.83;;
6878;SDS011;3478;51.462;7.338;2022-10-17T11:39:39;4.67;;;2.40;;
6878;SDS011;3478;51.462;7.338;2022-10-17T11:44:49;3.03;;;1.97;;
6878;SDS011;3478;51.462;7.338;2022-10-17T11:49:59;2.87;;;2.67;;
6878;SDS011;3478;51.462;7.338;2022-10-17T11:55:07;6.67;;;2.80;;
6878;SDS011;3478;51.462;7.338;2022-10-17T12:00:23;3.20;;;3.00;;
6878;SDS011;3478;51.462;7.338;2022-10-17T12:05:40;7.20;;;2.63;;
6878;SDS011;3478;51.462;7.338;2022-10-17T12:10:47;8.13;;;2.80;;
6878;SDS011;3478;51.462;7.338;2022-10-17T12:15:57;5.70;;;2.50;;
6878;SDS011;3478;51.462;7.338;2022-10-17T12:21:41;2.57;;;2.47;;
6878;SDS011;3478;51.462;7.338;2022-10-17T12:26:54;2.57;;;2.47;;
6878;SDS011;3478;51.462;7.338;2022-10-17T12:32:09;2.50;;;2.30;;
6878;SDS011;3478;51.462;7.338;2022-10-17T12:37:12;11.53;;;3.60;;
6878;SDS011;3478;51.462;7.338;2022-10-17T12:42:44;5.90;;;2.97;;
6878;SDS011;3478;51.462;7.338;2022-10-17T12:47:49;2.50;;;2.30;;
6878;SDS011;3478;51.462;7.338;2022-10-17T12:52:54;6.77;;;3.50;;
6878;SDS011;3478;51.462;7.338;2022-10-17T12:58:05;4.63;;;3.10;;
6878;SDS011;3478;51.462;7.338;2022-10-17T13:03:16;4.17;;;2.97;;
6878;SDS011;3478;51.462;7.338;2022-10-17T13:08:21;2.73;;;2.53;;
6878;SDS011;3478;51.462;7.338;2022-10-17T13:13:27;4.43;;;2.67;;
6878;SDS011;3478;51.462;7.338;2022-10-17T13:18:37;4.50;;;2.90;;
6878;SDS011;3478;51.462;7.338;2022-10-17T13:23:39;6.07;;;3.63;;
6878;SDS011;3478;51.462;7.338;2022-10-17T13:28:42;3.20;;;3.00;;
6878;SDS011;3478;51.462;7.338;2022-10-17T13:33:45;4.90;;;3.20;;
6878;SDS011;3478;51.462;7.338;2022-10-17T13:38:47;3.53;;;2.93;;
6878;SDS011;3478;51.462;7.338;2022-10-17T13:43:49;3.53;;;3.10;;
6878;SDS011;3478;51.462;7.338;2022-10-17T13:48:53;6.57;;;3.13;;
6878;SDS011;3478;51.462;7.338;2022-10-17T13:53:56;2.73;;;2.63;;
6878;SDS011;3478;51.462;7.338;2022-10-17T13:58:59;7.87;;;4.10;;
6878;SDS011;3478;51.462;7.338;2022-10-17T14:04:05;5.33;;;4.00;;
6878;SDS011;3478;51.462;7.338;2022-10-17T14:09:15;4.10;;;3.00;;
6878;SDS011;3478;51.462;7.338;2022-10-17T14:14:21;4.20;;;3.30;;
6878;SDS011;3478;51.462;7.338;2022-10-17T14:19:27;3.40;;;3.07;;
6878;SDS011;3478;51.462;7.338;2022-10-17T14:24:31;4.80;;;2.77;;
6878;SDS011;3478;51.462;7.338;2022-10-17T14:29:49;5.23;;;3.53;;
6878;SDS011;3478;51.462;7.338;2022-10-17T14:34:54;3.47;;;3.13;;
6878;SDS011;3478;51.462;7.338;2022-10-17T14:39:58;3.80;;;3.43;;
6878;SDS011;3478;51.462;7.338;2022-10-17T14:45:03;5.77;;;3.23;;
6878;SDS011;3478;51.462;7.338;2022-10-17T14:50:19;14.77;;;3.70;;
6878;SDS011;3478;51.462;7.338;2022-10-17T14:55:23;5.00;;;3.50;;
6878;SDS011;3478;51.462;7.338;2022-10-17T15:00:26;9.43;;;3.27;;
6878;SDS011;3478;51.462;7.338;2022-10-17T15:05:29;10.17;;;5.53;;
6878;SDS011;3478;51.462;7.338;2022-10-17T15:10:32;6.53;;;3.80;;
6878;SDS011;3478;51.462;7.338;2022-10-17T15:15:40;5.07;;;4.67;;
6878;SDS011;3478;51.462;7.338;2022-10-17T15:20:45;10.33;;;4.17;;
6878;SDS011;3478;51.462;7.338;2022-10-17T15:25:46;9.30;;;4.80;;
6878;SDS011;3478;51.462;7.338;2022-10-17T15:30:48;4.40;;;3.87;;
6878;SDS011;3478;51.462;7.338;2022-10-17T15:35:52;6.77;;;3.60;;
6878;SDS011;3478;51.462;7.338;2022-10-17T15:40:53;7.80;;;3.67;;
6878;SDS011;3478;51.462;7.338;2022-10-17T15:45:55;4.37;;;3.20;;
6878;SDS011;3478;51.462;7.338;2022-10-17T15:51:01;8.13;;;3.87;;
6878;SDS011;3478;51.462;7.338;2022-10-17T15:56:03;5.10;;;3.60;;
6878;SDS011;3478;51.462;7.338;2022-10-17T16:01:06;6.67;;;4.77;;
6878;SDS011;3478;51.462;7.338;2022-10-17T16:06:09;7.10;;;4.67;;
6878;SDS011;3478;51.462;7.338;2022-10-17T16:11:14;6.37;;;3.80;;
6878;SDS011;3478;51.462;7.338;2022-10-17T16:16:18;5.73;;;4.07;;
6878;SDS011;3478;51.462;7.338;2022-10-17T16:21:23;4.47;;;4.07;;
6878;SDS011;3478;51.462;7.338;2022-10-17T16:26:26;6.27;;;4.30;;
6878;SDS011;3478;51.462;7.338;2022-10-17T16:31:30;5.30;;;4.43;;
6878;SDS011;3478;51.462;7.338;2022-10-17T16:36:35;6.20;;;5.27;;
6878;SDS011;3478;51.462;7.338;2022-10-17T16:41:37;5.27;;;4.90;;
6878;SDS011;3478;51.462;7.338;2022-10-17T16:46:39;6.40;;;5.53;;
6878;SDS011;3478;51.462;7.338;2022-10-17T16:51:42;7.60;;;5.00;;
6878;SDS011;3478;51.462;7.338;2022-10-17T16:56:44;6.30;;;5.80;;
6878;SDS011;3478;51.462;7.338;2022-10-17T17:01:46;14.30;;;5.63;;
6878;SDS011;3478;51.462;7.338;2022-10-17T17:06:49;15.13;;;7.40;;
6878;SDS011;3478;51.462;7.338;2022-10-17T17:11:51;7.23;;;6.53;;
6878;SDS011;3478;51.462;7.338;2022-10-17T17:16:53;7.20;;;6.53;;
6878;SDS011;3478;51.462;7.338;2022-10-17T17:21:56;8.43;;;7.10;;
6878;SDS011;3478;51.462;7.338;2022-10-17T17:26:58;8.17;;;6.30;;
6878;SDS011;3478;51.462;7.338;2022-10-17T17:32:00;8.37;;;6.13;;
6878;SDS011;3478;51.462;7.338;2022-10-17T17:37:03;8.77;;;6.60;;
6878;SDS011;3478;51.462;7.338;2022-10-17T17:42:05;9.17;;;8.07;;
6878;SDS011;3478;51.462;7.338;2022-10-17T17:47:07;10.87;;;8.07;;
6878;SDS011;3478;51.462;7.338;2022-10-17T17:52:10;8.47;;;7.40;;
6878;SDS011;3478;51.462;7.338;2022-10-17T17:57:12;9.47;;;7.17;;
6878;SDS011;3478;51.462;7.338;2022-10-17T18:02:14;9.70;;;7.80;;
6878;SDS011;3478;51.462;7.338;2022-10-17T18:07:17;11.40;;;9.33;;
6878;SDS011;3478;51.462;7.338;2022-10-17T18:12:19;9.57;;;7.80;;
6878;SDS011;3478;51.462;7.338;2022-10-17T18:17:21;9.27;;;8.40;;
6878;SDS011;3478;51.462;7.338;2022-10-17T18:22:24;13.37;;;8.27;;
6878;SDS011;3478;51.462;7.338;2022-10-17T18:27:26;15.27;;;7.73;;
6878;SDS011;3478;51.462;7.338;2022-10-17T18:32:28;11.80;;;7.33;;
6878;SDS011;3478;51.462;7.338;2022-10-17T18:37:32;8.87;;;7.97;;
6878;SDS011;3478;51.462;7.338;2022-10-17T18:42:33;6.83;;;6.23;;
6878;SDS011;3478;51.462;7.338;2022-10-17T18:47:35;6.17;;;5.57;;
6878;SDS011;3478;51.462;7.338;2022-10-17T18:52:39;9.10;;;5.13;;
6878;SDS011;3478;51.462;7.338;2022-10-17T18:57:41;8.97;;;4.57;;
6878;SDS011;3478;51.462;7.338;2022-10-17T19:02:43;4.50;;;4.10;;
6878;SDS011;3478;51.462;7.338;2022-10-17T19:07:46;4.07;;;3.20;;
6878;SDS011;3478;51.462;7.338;2022-10-17T19:12:49;6.63;;;3.50;;
6878;SDS011;3478;51.462;7.338;2022-10-17T19:17:51;3.67;;;3.40;;
6878;SDS011;3478;51.462;7.338;2022-10-17T19:22:54;7.03;;;3.77;;
6878;SDS011;3478;51.462;7.338;2022-10-17T19:27:56;4.53;;;3.60;;
6878;SDS011;3478;51.462;7.338;2022-10-17T19:32:58;6.60;;;2.87;;
6878;SDS011;3478;51.462;7.338;2022-10-17T19:38:01;5.03;;;3.93;;
6878;SDS011;3478;51.462;7.338;2022-10-17T19:43:03;4.90;;;2.87;;
6878;SDS011;3478;51.462;7.338;2022-10-17T19:48:05;8.93;;;4.03;;
6878;SDS011;3478;51.462;7.338;2022-10-17T19:53:09;8.70;;;4.80;;
6878;SDS011;3478;51.462;7.338;2022-10-17T19:58:11;3.40;;;3.20;;
6878;SDS011;3478;51.462;7.338;2022-10-17T20:03:13;5.93;;;3.37;;
6878;SDS011;3478;51.462;7.338;2022-10-17T20:08:16;4.67;;;4.13;;
6878;SDS011;3478;51.462;7.338;2022-10-17T20:13:19;4.67;;;4.33;;
6878;SDS011;3478;51.462;7.338;2022-10-17T20:18:21;4.50;;;4.20;;
6878;SDS011;3478;51.462;7.338;2022-10-17T20:23:25;4.50;;;4.10;;
6878;SDS011;3478;51.462;7.338;2022-10-17T20:28:27;5.00;;;4.47;;
6878;SDS011;3478;51.462;7.338;2022-10-17T20:33:29;5.33;;;4.47;;
6878;SDS011;3478;51.462;7.338;2022-10-17T20:38:33;9.80;;;4.50;;
6878;SDS011;3478;51.462;7.338;2022-10-17T20:43:35;4.87;;;3.77;;
6878;SDS011;3478;51.462;7.338;2022-10-17T20:48:37;7.03;;;4.57;;
6878;SDS011;3478;51.462;7.338;2022-10-17T20:53:40;3.87;;;3.67;;
6878;SDS011;3478;51.462;7.338;2022-10-17T20:58:42;6.13;;;5.47;;
6878;SDS011;3478;51.462;7.338;2022-10-17T21:03:44;7.33;;;3.77;;
6878;SDS011;3478;51.462;7.338;2022-10-17T21:08:47;8.67;;;4.20;;
6878;SDS011;3478;51.462;7.338;2022-10-17T21:13:55;4.77;;;4.20;;
6878;SDS011;3478;51.462;7.338;2022-10-17T21:18:58;6.57;;;4.80;;
6878;SDS011;3478;51.462;7.338;2022-10-17T21:24:02;6.43;;;5.93;;
6878;SDS011;3478;51.462;7.338;2022-10-17T21:29:06;6.53;;;5.87;;
6878;SDS011;3478;51.462;7.338;2022-10-17T21:34:10;5.67;;;5.03;;
6878;SDS011;3478;51.462;7.338;2022-10-17T21:39:14;6.10;;;4.47;;
6878;SDS011;3478;51.462;7.338;2022-10-17T21:44:17;4.73;;;3.70;;
6878;SDS011;3478;51.462;7.338;2022-10-17T21:49:20;6.13;;;5.00;;
6878;SDS011;3478;51.462;7.338;2022-10-17T21:54:25;5.70;;;4.13;;
6878;SDS011;3478;51.462;7.338;2022-10-17T21:59:27;4.73;;;4.13;;
6878;SDS011;3478;51.462;7.338;2022-10-17T22:04:30;3.40;;;3.10;;
6878;SDS011;3478;51.462;7.338;2022-10-17T22:09:34;9.57;;;3.10;;
6878;SDS011;3478;51.462;7.338;2022-10-17T22:14:36;4.00;;;3.70;;
6878;SDS011;3478;51.462;7.338;2022-10-17T22:19:37;1.90;;;1.70;;
6878;SDS011;3478;51.462;7.338;2022-10-17T22:24:41;5.33;;;2.70;;
6878;SDS011;3478;51.462;7.338;2022-10-17T22:29:43;3.17;;;2.97;;
6878;SDS011;3478;51.462;7.338;2022-10-17T22:34:45;5.37;;;3.80;;
6878;SDS011;3478;51.462;7.338;2022-10-17T22:39:48;3.47;;;3.27;;
6878;SDS011;3478;51.462;7.338;2022-10-17T22:44:50;3.80;;;3.60;;
6878;SDS011;3478;51.462;7.338;2022-10-17T22:49:52;8.07;;;4.07;;
6878;SDS011;3478;51.462;7.338;2022-10-17T22:54:55;4.63;;;3.33;;
6878;SDS011;3478;51.462;7.338;2022-10-17T22:59:57;4.20;;;3.80;;
6878;SDS011;3478;51.462;7.338;2022-10-17T23:04:59;4.13;;;3.73;;
6878;SDS011;3478;51.462;7.338;2022-10-17T23:10:02;3.80;;;3.10;;
6878;SDS011;3478;51.462;7.338;2022-10-17T23:15:05;4.47;;;3.77;;
6878;SDS011;3478;51.462;7.338;2022-10-17T23:20:08;2.93;;;2.60;;
6878;SDS011;3478;51.462;7.338;2022-10-17T23:25:11;5.10;;;4.30;;
6878;SDS011;3478;51.462;7.338;2022-10-17T23:30:13;4.97;;;3.37;;
6878;SDS011;3478;51.462;7.338;2022-10-17T23:35:16;12.73;;;3.77;;
6878;SDS011;3478;51.462;7.338;2022-10-17T23:40:19;4.60;;;3.83;;
6878;SDS011;3478;51.462;7.338;2022-10-17T23:45:21;4.77;;;3.17;;
6878;SDS011;3478;51.462;7.338;2022-10-17T23:50:23;11.90;;;3.80;;
6878;SDS011;3478;51.462;7.338;2022-10-17T23:55:26;3.80;;;3.60;;
